»·PEaware :: N7732J KTOA-KVNY

N7732J :: KTOA-KVNY

FLIGHT INFORMATION

Flight Status: Arrived
Operator: Privately registered:
United States
More flights under this callsign
Pilot: Scott G. (88)
Aircraft: BEECH AIRCRAFT BARON
(BE58)
More flights by this aircraft type
Origin: KTOA Zamperini
United States
Destination: KVNY Van Nuys
United States
More flights between these airports :: More routes between these airports
Route: SLI SLI341 ELMOO V186 VNY
File this flight plan on PilotEdge
Remarks: X-Plane 11 / Real weather
Altitude:
(Current/Filed)
6,000ft
Speed:
(Current/Filed)
180kts
Departed: 06-Dec-18 08:31 AM
Arrived: 06-Dec-18 09:10 AM
Distance/Time
Traveled:
25nm/0:38
Distance/Time
To Go:
Arrived

Flight Plot

Page will automatically refresh every two minutes.

Flight plan parsing failed; only flown route is shown


Map Options




Map Legend


Flown Route
Filed Route
Departure Airport
Arrival Airport
Navaid (VOR, NDB)
Fix

Horizontal Profiles

Position Reports

Time Latitude Longitude Heading Altitude Ground
Speed
06-Dec-18 07:59 33.801856 -118.341736 45 104ft 0kts
06-Dec-18 08:00 33.801856 -118.341736 45 104ft 0kts
06-Dec-18 08:01 33.801856 -118.341736 45 104ft 0kts
06-Dec-18 08:02 33.801856 -118.341736 45 104ft 0kts
06-Dec-18 08:03 33.801856 -118.341736 45 104ft 0kts
06-Dec-18 08:04 33.801856 -118.341736 45 104ft 0kts
06-Dec-18 08:05 33.801856 -118.341736 45 104ft 0kts
06-Dec-18 08:06 33.801856 -118.341736 45 104ft 0kts
06-Dec-18 08:07 33.801856 -118.341736 45 104ft 0kts
06-Dec-18 08:08 33.801856 -118.341736 45 104ft 0kts
06-Dec-18 08:09 33.801856 -118.341736 45 104ft 0kts
06-Dec-18 08:10 33.801856 -118.341736 45 104ft 0kts
06-Dec-18 08:11 33.801856 -118.341736 45 104ft 0kts
06-Dec-18 08:12 33.801856 -118.341736 45 104ft 0kts
06-Dec-18 08:13 33.801856 -118.341736 45 104ft 0kts
06-Dec-18 08:14 33.801856 -118.341736 45 104ft 0kts
06-Dec-18 08:15 33.801856 -118.341736 45 104ft 0kts
06-Dec-18 08:16 33.801856 -118.341736 45 104ft 0kts
06-Dec-18 08:17 33.801856 -118.341736 45 104ft 0kts
06-Dec-18 08:18 33.801856 -118.341736 45 104ft 0kts
06-Dec-18 08:19 33.801856 -118.341736 45 104ft 0kts
06-Dec-18 08:20 33.801856 -118.341736 45 104ft 0kts
06-Dec-18 08:21 33.801856 -118.341736 45 104ft 0kts
06-Dec-18 08:22 33.801856 -118.341736 45 104ft 0kts
06-Dec-18 08:23 33.801856 -118.341736 45 104ft 0kts
06-Dec-18 08:24 33.801856 -118.341736 45 104ft 0kts
06-Dec-18 08:25 33.801856 -118.341736 45 104ft 0kts
06-Dec-18 08:26 33.801957 -118.341636 19 104ft 4kts
06-Dec-18 08:27 33.804503 -118.344304 308 104ft 18kts
06-Dec-18 08:28 33.807562 -118.346030 34 104ft 0kts
06-Dec-18 08:29 33.807562 -118.346030 34 104ft 0kts
06-Dec-18 08:30 33.806728 -118.343602 126 104ft 53kts
06-Dec-18 08:31 33.789639 -118.316276 118 1167ft 125kts
06-Dec-18 08:32 33.769707 -118.283282 125 2691ft 124kts
06-Dec-18 08:33 33.746076 -118.246671 119 3005ft 149kts
06-Dec-18 08:34 33.720742 -118.204704 123 2969ft 158kts
06-Dec-18 08:35 33.694558 -118.161477 123 3585ft 157kts
06-Dec-18 08:36 33.692007 -118.114386 72 4474ft 149kts
06-Dec-18 08:37 33.714235 -118.074986 22 5326ft 155kts
06-Dec-18 08:38 33.756445 -118.061690 15 6191ft 159kts
06-Dec-18 08:39 33.806381 -118.049372 18 6014ft 191kts
06-Dec-18 08:40 33.857341 -118.040932 337 6015ft 203kts
06-Dec-18 08:41 33.898957 -118.067848 0 6012ft 201kts
06-Dec-18 08:42 33.946091 -118.068513 359 6017ft 201kts
06-Dec-18 08:43 33.997101 -118.072764 359 6018ft 201kts
06-Dec-18 08:44 34.042774 -118.076612 359 6018ft 201kts
06-Dec-18 08:45 34.095502 -118.095676 323 6019ft 207kts
06-Dec-18 08:46 34.121508 -118.156528 291 6017ft 208kts
06-Dec-18 08:47 34.140990 -118.220048 289 6016ft 196kts
06-Dec-18 08:48 34.158551 -118.280217 285 6015ft 186kts
06-Dec-18 08:49 34.173233 -118.340028 285 6016ft 185kts
06-Dec-18 08:50 34.171090 -118.400104 271 6016ft 183kts
06-Dec-18 08:51 34.194168 -118.453096 285 6020ft 178kts
06-Dec-18 08:52 34.225378 -118.496013 331 6022ft 178kts
06-Dec-18 08:53 34.270178 -118.520500 331 6022ft 176kts
06-Dec-18 08:54 34.314169 -118.547688 331 6027ft 181kts
06-Dec-18 08:55 34.356845 -118.582317 331 6029ft 187kts
06-Dec-18 08:56 34.400640 -118.617708 331 6025ft 191kts
06-Dec-18 08:57 34.446472 -118.650149 357 6007ft 187kts
06-Dec-18 08:58 34.478465 -118.614015 93 5331ft 180kts
06-Dec-18 08:59 34.448669 -118.566181 100 5090ft 160kts
06-Dec-18 09:00 34.443558 -118.513395 103 5067ft 160kts
06-Dec-18 09:01 34.408969 -118.489006 197 5074ft 157kts
06-Dec-18 09:02 34.364929 -118.493174 184 5064ft 159kts
06-Dec-18 09:03 34.323345 -118.493014 183 3982ft 149kts
06-Dec-18 09:04 34.285275 -118.496570 186 2760ft 127kts
06-Dec-18 09:05 34.249566 -118.500445 163 2694ft 139kts
06-Dec-18 09:06 34.212531 -118.494690 205 2003ft 145kts
06-Dec-18 09:07 34.179915 -118.492930 78 987ft 110kts
06-Dec-18 09:08 34.202296 -118.489696 354 803ft 73kts
06-Dec-18 09:09 34.206582 -118.491315 267 803ft 6kts
06-Dec-18 09:11 34.206332 -118.492812 358 803ft 0kts
06-Dec-18 09:12 34.206332 -118.492812 358 803ft 0kts
06-Dec-18 09:13 34.206332 -118.492812 358 803ft 0kts

Navigation Log

Ident Type
Flight plan parsing failed, navigation log unavailable